Time;durP1;ratioP1;P1;durP2;ratioP2;P2;SDS_P1;SDS_P2;PMS_P1;PMS_P2;Temp;Humidity;BMP_temperature;BMP_pressure;BME280_temperature;BME280_humidity;BME280_pressure;Samples;Min_cycle;Max_cycle;Signal;HPM_P1;HPM_P2
2021/03/21 00:00:19;;;;;;;7.82;3.67;;;;;;;;;;5018753;28;20781;-82
2021/03/21 00:03:05;;;;;;;7.47;3.83;;;;;;;;;;5000996;28;20034;-82
2021/03/21 00:05:50;;;;;;;7.00;3.90;;;;;;;;;;5017429;28;20414;-83
2021/03/21 00:08:35;;;;;;;7.45;3.53;;;;;;;;;;5018022;28;20084;-83
2021/03/21 00:11:21;;;;;;;8.45;3.78;;;;;;;;;;5007667;28;20346;-83
2021/03/21 00:14:06;;;;;;;7.78;3.88;;;;;;;;;;4989931;28;20121;-83
2021/03/21 00:16:52;;;;;;;7.13;4.82;;;;;;;;;;5003663;28;20084;-83
2021/03/21 00:19:37;;;;;;;6.43;3.40;;;;;;;;;;5005511;28;20029;-84
2021/03/21 00:22:22;;;;;;;7.78;4.20;;;;;;;;;;5017714;28;20037;-84
2021/03/21 00:25:09;;;;;;;11.05;4.07;;;;;;;;;;5005888;28;20101;-84
2021/03/21 00:27:55;;;;;;;7.00;4.18;;;;;;;;;;5003341;28;20389;-83
2021/03/21 00:30:41;;;;;;;10.35;3.80;;;;;;;;;;4995590;28;20029;-83
2021/03/21 00:33:28;;;;;;;7.15;4.07;;;;;;;;;;5019199;28;20049;-82
2021/03/21 00:36:14;;;;;;;8.35;4.10;;;;;;;;;;5003965;28;20014;-85
2021/03/21 00:39:00;;;;;;;9.50;4.18;;;;;;;;;;5001984;28;20362;-84
2021/03/21 00:41:45;;;;;;;9.38;4.03;;;;;;;;;;5008678;28;20057;-85
2021/03/21 00:44:30;;;;;;;8.70;4.30;;;;;;;;;;5004265;28;20143;-85
2021/03/21 00:47:16;;;;;;;6.38;3.50;;;;;;;;;;4990378;28;20042;-85
2021/03/21 00:50:02;;;;;;;9.43;4.80;;;;;;;;;;5016680;28;20116;-84
2021/03/21 00:52:47;;;;;;;10.82;4.90;;;;;;;;;;5002288;28;20418;-85
2021/03/21 00:55:32;;;;;;;9.27;4.82;;;;;;;;;;4991509;28;20017;-84
2021/03/21 00:58:18;;;;;;;13.10;5.45;;;;;;;;;;5021927;28;20042;-84
2021/03/21 01:01:04;;;;;;;9.32;4.57;;;;;;;;;;5003796;28;20500;-83
2021/03/21 01:03:49;;;;;;;7.97;3.85;;;;;;;;;;5016850;28;20558;-82
2021/03/21 01:06:34;;;;;;;6.43;3.45;;;;;;;;;;4995360;28;20199;-82
2021/03/21 01:09:20;;;;;;;9.73;3.90;;;;;;;;;;5015018;28;20109;-82
2021/03/21 01:12:05;;;;;;;8.80;4.13;;;;;;;;;;5017823;28;20025;-83
2021/03/21 01:14:51;;;;;;;9.68;4.00;;;;;;;;;;5016325;28;20054;-83
2021/03/21 01:17:36;;;;;;;7.03;3.47;;;;;;;;;;5004356;28;20064;-82
2021/03/21 01:20:22;;;;;;;10.35;4.63;;;;;;;;;;5004040;28;20480;-83
2021/03/21 01:23:08;;;;;;;7.30;3.72;;;;;;;;;;5005069;28;20049;-83
2021/03/21 01:25:53;;;;;;;8.93;3.85;;;;;;;;;;5003979;28;20405;-82
2021/03/21 01:28:39;;;;;;;6.55;3.40;;;;;;;;;;5002465;28;20022;-83
2021/03/21 01:31:25;;;;;;;7.63;3.92;;;;;;;;;;5002929;28;20029;-83
2021/03/21 01:34:11;;;;;;;7.32;3.83;;;;;;;;;;5018363;28;20026;-83
2021/03/21 01:36:56;;;;;;;9.70;4.80;;;;;;;;;;5020874;28;20567;-82
2021/03/21 01:39:42;;;;;;;6.93;3.63;;;;;;;;;;5021082;28;20412;-83
2021/03/21 01:42:34;;;;;;;7.88;3.75;;;;;;;;;;5002635;28;20571;-83
2021/03/21 01:45:34;;;;;;;8.90;5.28;;;;;;;;;;5015707;28;20026;-83
2021/03/21 01:48:27;;;;;;;8.18;3.38;;;;;;;;;;5015182;28;20033;-83
2021/03/21 01:51:19;;;;;;;7.28;3.67;;;;;;;;;;5012141;28;20022;-83
2021/03/21 01:54:06;;;;;;;8.93;4.82;;;;;;;;;;5006985;28;20018;-84
2021/03/21 01:56:53;;;;;;;7.47;3.47;;;;;;;;;;5001317;28;20032;-84
2021/03/21 01:59:38;;;;;;;8.07;3.55;;;;;;;;;;5019323;28;20045;-85
2021/03/21 02:02:23;;;;;;;6.72;3.80;;;;;;;;;;4991957;28;20548;-85
2021/03/21 02:05:09;;;;;;;6.80;4.03;;;;;;;;;;5015945;28;20159;-85
2021/03/21 02:08:17;;;;;;;6.68;3.80;;;;;;;;;;4997089;28;20381;-85
2021/03/21 02:11:24;;;;;;;7.72;4.18;;;;;;;;;;5002650;28;20034;-84
2021/03/21 02:14:16;;;;;;;7.65;3.55;;;;;;;;;;5007296;28;20072;-84
2021/03/21 02:17:20;;;;;;;7.13;3.78;;;;;;;;;;5015022;28;20022;-84
2021/03/21 02:20:12;;;;;;;6.53;3.83;;;;;;;;;;5004956;28;20026;-85
2021/03/21 02:23:00;;;;;;;5.72;3.38;;;;;;;;;;5002531;28;20029;-84
2021/03/21 02:25:53;;;;;;;12.75;4.25;;;;;;;;;;5017812;28;20508;-85
2021/03/21 02:28:44;;;;;;;8.55;4.38;;;;;;;;;;4999050;28;20054;-84
2021/03/21 02:31:30;;;;;;;7.95;3.97;;;;;;;;;;5008041;28;20372;-85
2021/03/21 02:34:27;;;;;;;5.88;3.63;;;;;;;;;;5003314;28;20037;-85
2021/03/21 02:37:24;;;;;;;8.05;4.00;;;;;;;;;;5005157;28;20057;-84
2021/03/21 02:40:12;;;;;;;8.77;4.40;;;;;;;;;;5009073;28;20117;-84
2021/03/21 02:43:00;;;;;;;5.82;3.60;;;;;;;;;;4990937;28;20021;-84
2021/03/21 02:45:49;;;;;;;5.82;3.50;;;;;;;;;;5023649;28;20033;-84
2021/03/21 02:48:37;;;;;;;6.70;3.67;;;;;;;;;;5006859;28;21643;-83
2021/03/21 02:51:28;;;;;;;7.75;4.03;;;;;;;;;;5010796;28;20022;-82
2021/03/21 02:54:19;;;;;;;8.45;4.05;;;;;;;;;;5007172;28;20017;-85
2021/03/21 02:57:07;;;;;;;7.18;3.40;;;;;;;;;;5010538;28;20400;-85
2021/03/21 02:59:54;;;;;;;6.68;3.30;;;;;;;;;;5008760;28;20037;-84
2021/03/21 03:02:46;;;;;;;6.38;3.85;;;;;;;;;;5002166;28;20021;-84
2021/03/21 03:05:36;;;;;;;6.03;3.38;;;;;;;;;;5004246;28;20523;-84
2021/03/21 03:08:27;;;;;;;6.88;3.78;;;;;;;;;;5018106;28;20064;-82
2021/03/21 03:11:15;;;;;;;7.13;3.78;;;;;;;;;;5013533;28;20065;-83
2021/03/21 03:14:02;;;;;;;7.45;3.80;;;;;;;;;;5006046;28;20038;-83
2021/03/21 03:17:06;;;;;;;6.78;3.92;;;;;;;;;;5022149;28;20049;-84
2021/03/21 03:20:07;;;;;;;6.53;3.50;;;;;;;;;;5013952;28;20641;-86
2021/03/21 03:23:01;;;;;;;9.95;4.03;;;;;;;;;;5006517;28;20041;-86
2021/03/21 03:25:55;;;;;;;7.00;3.85;;;;;;;;;;5002933;28;20038;-85
2021/03/21 03:28:52;;;;;;;6.00;3.33;;;;;;;;;;5009344;28;20021;-84
2021/03/21 03:31:42;;;;;;;7.93;3.70;;;;;;;;;;5021602;28;20459;-84
2021/03/21 03:34:30;;;;;;;7.40;3.70;;;;;;;;;;5007236;28;20117;-85
2021/03/21 03:37:15;;;;;;;9.30;4.25;;;;;;;;;;5004143;28;20045;-84
2021/03/21 03:40:01;;;;;;;9.70;3.40;;;;;;;;;;5013455;28;20041;-86
2021/03/21 03:42:49;;;;;;;7.25;3.65;;;;;;;;;;5005681;28;20026;-85
2021/03/21 03:45:40;;;;;;;7.13;3.80;;;;;;;;;;5016968;28;20034;-84
2021/03/21 03:48:45;;;;;;;6.05;3.58;;;;;;;;;;5017385;28;20499;-83
2021/03/21 03:51:49;;;;;;;6.85;3.67;;;;;;;;;;5002186;28;20500;-84
2021/03/21 03:54:37;;;;;;;9.07;4.03;;;;;;;;;;5018985;28;20033;-84
2021/03/21 03:57:29;;;;;;;6.82;3.50;;;;;;;;;;5005089;28;20026;-85
2021/03/21 04:00:14;;;;;;;8.43;3.92;;;;;;;;;;5008043;28;20376;-85
2021/03/21 04:03:06;;;;;;;6.75;3.45;;;;;;;;;;5005161;28;20024;-84
2021/03/21 04:05:57;;;;;;;7.53;3.17;;;;;;;;;;5016426;28;20025;-84
2021/03/21 04:09:02;;;;;;;5.50;3.00;;;;;;;;;;5009396;28;20025;-84
2021/03/21 04:12:13;;;;;;;7.03;4.18;;;;;;;;;;5006294;28;20018;-84
2021/03/21 04:15:25;;;;;;;5.63;3.40;;;;;;;;;;5006690;28;20100;-87
2021/03/21 04:18:22;;;;;;;9.48;3.55;;;;;;;;;;5001962;28;20029;-83
2021/03/21 04:21:16;;;;;;;8.57;3.60;;;;;;;;;;5008337;28;20029;-84
2021/03/21 04:24:01;;;;;;;7.68;3.88;;;;;;;;;;5016485;28;20026;-84
2021/03/21 04:26:55;;;;;;;7.70;3.60;;;;;;;;;;4999236;28;20022;-84
2021/03/21 04:29:48;;;;;;;7.65;3.80;;;;;;;;;;5005824;28;20026;-84
2021/03/21 04:32:35;;;;;;;6.80;3.88;;;;;;;;;;5019092;28;20049;-84
2021/03/21 04:35:27;;;;;;;6.53;3.63;;;;;;;;;;5007274;28;20033;-85
2021/03/21 04:38:44;;;;;;;8.38;3.63;;;;;;;;;;5004437;28;20026;-85
2021/03/21 04:41:33;;;;;;;8.07;3.55;;;;;;;;;;4983892;28;20037;-84
2021/03/21 04:44:22;;;;;;;8.98;3.60;;;;;;;;;;5018231;28;20013;-85
2021/03/21 04:47:17;;;;;;;6.28;3.83;;;;;;;;;;5016400;28;20077;-83
2021/03/21 04:50:02;;;;;;;7.93;3.72;;;;;;;;;;5007439;28;20026;-85
2021/03/21 04:53:06;;;;;;;4.57;3.15;;;;;;;;;;4993293;28;20088;-86
2021/03/21 04:55:56;;;;;;;5.75;3.22;;;;;;;;;;5007531;28;20024;-86
2021/03/21 04:58:41;;;;;;;;;;;;;;;;;;4998021;28;20032;-86
2021/03/21 05:01:38;;;;;;;6.22;3.22;;;;;;;;;;5014824;28;19909;-85
2021/03/21 05:04:25;;;;;;;8.50;3.72;;;;;;;;;;5009047;28;20022;-85
2021/03/21 05:07:11;;;;;;;7.68;3.85;;;;;;;;;;5022681;28;20497;-85
2021/03/21 05:10:08;;;;;;;8.73;4.28;;;;;;;;;;5024184;28;20030;-85
2021/03/21 05:13:06;;;;;;;8.18;3.58;;;;;;;;;;5005156;28;20064;-84
2021/03/21 05:15:58;;;;;;;8.90;4.00;;;;;;;;;;5005430;28;20049;-85
2021/03/21 05:19:03;;;;;;;6.60;3.60;;;;;;;;;;5018891;28;20334;-86
2021/03/21 05:21:56;;;;;;;7.43;3.30;;;;;;;;;;5004576;28;20029;-86
2021/03/21 05:24:45;;;;;;;9.43;4.15;;;;;;;;;;5002930;28;20038;-86
2021/03/21 05:27:35;;;;;;;6.93;3.70;;;;;;;;;;5006727;28;20057;-85
2021/03/21 05:30:26;;;;;;;6.60;3.35;;;;;;;;;;4992491;28;20104;-85
2021/03/21 05:33:13;;;;;;;8.52;3.80;;;;;;;;;;5003417;28;20231;-84
2021/03/21 05:36:01;;;;;;;8.00;3.70;;;;;;;;;;5020192;28;20026;-85
2021/03/21 05:38:54;;;;;;;8.27;4.10;;;;;;;;;;4993087;28;20117;-85
2021/03/21 05:42:03;;;;;;;7.88;3.70;;;;;;;;;;5015117;28;20018;-85
2021/03/21 05:44:48;;;;;;;4.30;2.80;;;;;;;;;;5001977;28;20019;-84
2021/03/21 05:47:46;;;;;;;6.60;3.40;;;;;;;;;;5002225;28;20114;-84
2021/03/21 05:50:54;;;;;;;8.13;3.88;;;;;;;;;;5006385;28;20042;-85
2021/03/21 05:53:45;;;;;;;7.45;3.50;;;;;;;;;;5019179;28;20039;-85
2021/03/21 05:56:46;;;;;;;5.80;3.42;;;;;;;;;;5019143;28;20014;-85
2021/03/21 05:59:50;;;;;;;6.20;3.78;;;;;;;;;;4991948;28;20030;-84
2021/03/21 06:02:54;;;;;;;6.03;3.92;;;;;;;;;;5006271;28;20029;-84
2021/03/21 06:06:04;;;;;;;7.63;3.60;;;;;;;;;;5019651;28;20153;-87
2021/03/21 06:08:49;;;;;;;14.55;5.00;;;;;;;;;;5008415;28;20373;-86
2021/03/21 06:11:53;;;;;;;7.90;4.07;;;;;;;;;;5019837;28;20399;-85
2021/03/21 06:14:46;;;;;;;7.18;3.97;;;;;;;;;;5007273;28;20100;-86
2021/03/21 06:17:50;;;;;;;10.85;4.07;;;;;;;;;;5016960;28;20609;-83
2021/03/21 06:20:48;;;;;;;6.80;3.75;;;;;;;;;;5024468;28;20111;-84
2021/03/21 06:23:52;;;;;;;7.65;4.18;;;;;;;;;;5006916;28;20409;-84
2021/03/21 06:26:37;;;;;;;7.93;4.25;;;;;;;;;;5008016;28;20026;-82
2021/03/21 06:29:22;;;;;;;9.77;4.85;;;;;;;;;;5006360;28;20444;-86
2021/03/21 06:32:27;;;;;;;7.90;3.88;;;;;;;;;;5002908;28;20117;-82
2021/03/21 06:35:16;;;;;;;9.55;3.85;;;;;;;;;;5009379;28;20105;-86
2021/03/21 06:38:20;;;;;;;7.18;3.72;;;;;;;;;;4993394;28;20101;-87
2021/03/21 06:41:08;;;;;;;8.18;3.95;;;;;;;;;;5005739;28;20554;-85
2021/03/21 06:43:56;;;;;;;9.80;4.35;;;;;;;;;;5004682;28;20109;-86
2021/03/21 06:46:45;;;;;;;5.65;3.63;;;;;;;;;;5002121;28;20022;-85
2021/03/21 06:49:30;;;;;;;6.97;3.88;;;;;;;;;;5001842;28;20131;-86
2021/03/21 06:52:30;;;;;;;7.50;4.55;;;;;;;;;;5022902;28;20547;-83
2021/03/21 06:55:25;;;;;;;7.63;3.80;;;;;;;;;;5006288;28;20057;-82
2021/03/21 06:58:14;;;;;;;9.13;3.92;;;;;;;;;;5004626;28;20461;-83
2021/03/21 07:01:03;;;;;;;6.82;3.42;;;;;;;;;;5004349;28;20030;-83
2021/03/21 07:03:51;;;;;;;8.25;3.92;;;;;;;;;;5005638;28;20034;-86
2021/03/21 07:06:52;;;;;;;7.00;3.88;;;;;;;;;;5003623;28;20033;-88
2021/03/21 07:10:00;;;;;;;6.15;3.78;;;;;;;;;;5002060;28;20112;-86
2021/03/21 07:13:04;;;;;;;8.15;3.85;;;;;;;;;;4967211;28;20030;-86
2021/03/21 07:15:58;;;;;;;7.20;3.28;;;;;;;;;;5004887;28;20823;-83
2021/03/21 07:18:47;;;;;;;5.88;3.42;;;;;;;;;;5019366;28;20025;-84
2021/03/21 07:21:35;;;;;;;6.65;3.88;;;;;;;;;;5004078;28;20484;-81
2021/03/21 07:24:23;;;;;;;8.90;3.58;;;;;;;;;;4996959;28;20045;-78
2021/03/21 07:27:21;;;;;;;7.95;3.00;;;;;;;;;;5006238;28;20040;-85
2021/03/21 07:30:10;;;;;;;8.82;3.78;;;;;;;;;;5023014;28;20025;-83
2021/03/21 07:33:04;;;;;;;8.02;4.15;;;;;;;;;;4996892;28;20027;-83
2021/03/21 07:35:52;;;;;;;7.30;3.53;;;;;;;;;;5013220;28;20540;-83
2021/03/21 07:38:41;;;;;;;7.15;3.92;;;;;;;;;;5017684;28;20048;-82
2021/03/21 07:41:35;;;;;;;7.45;3.65;;;;;;;;;;4999085;28;20030;-81
2021/03/21 07:44:41;;;;;;;6.00;3.28;;;;;;;;;;5019341;28;20072;-81
2021/03/21 07:47:32;;;;;;;7.97;4.13;;;;;;;;;;5015482;28;20033;-81
2021/03/21 07:50:22;;;;;;;7.70;3.60;;;;;;;;;;5006769;28;20133;-83
2021/03/21 07:53:20;;;;;;;7.60;3.80;;;;;;;;;;4998364;28;20096;-81
2021/03/21 07:56:12;;;;;;;7.30;3.35;;;;;;;;;;4990717;28;20223;-83
2021/03/21 07:59:06;;;;;;;8.65;3.80;;;;;;;;;;5017093;28;20022;-82
2021/03/21 08:01:51;;;;;;;8.25;3.80;;;;;;;;;;5009407;28;20026;-83
2021/03/21 08:04:46;;;;;;;7.00;3.47;;;;;;;;;;5009240;28;20022;-83
2021/03/21 08:07:33;;;;;;;9.35;3.92;;;;;;;;;;4994739;28;20022;-82
2021/03/21 08:10:18;;;;;;;8.93;3.85;;;;;;;;;;5007307;28;20018;-83
2021/03/21 08:13:07;;;;;;;6.78;3.67;;;;;;;;;;4985198;28;20436;-82
2021/03/21 08:15:52;;;;;;;6.28;3.95;;;;;;;;;;5011993;28;20033;-82
2021/03/21 08:18:38;;;;;;;7.35;4.45;;;;;;;;;;5009492;28;20032;-81
2021/03/21 08:21:29;;;;;;;8.25;3.55;;;;;;;;;;4993458;28;20026;-82
2021/03/21 08:24:16;;;;;;;6.28;3.30;;;;;;;;;;5004029;28;20045;-83
2021/03/21 08:27:03;;;;;;;6.40;3.58;;;;;;;;;;5001616;28;20052;-83
2021/03/21 08:29:59;;;;;;;6.13;3.22;;;;;;;;;;5002952;28;20109;-81
2021/03/21 08:32:59;;;;;;;6.65;3.92;;;;;;;;;;5002218;28;20095;-81
2021/03/21 08:35:44;;;;;;;5.78;4.03;;;;;;;;;;4995739;28;20117;-82
2021/03/21 08:38:29;;;;;;;5.68;3.35;;;;;;;;;;4997931;28;20025;-83
2021/03/21 08:41:14;;;;;;;6.57;3.20;;;;;;;;;;5010780;28;20133;-83
2021/03/21 08:44:01;;;;;;;5.82;3.20;;;;;;;;;;4992920;28;20436;-83
2021/03/21 08:46:50;;;;;;;6.60;3.58;;;;;;;;;;4994938;28;20050;-82
2021/03/21 08:49:38;;;;;;;6.88;3.78;;;;;;;;;;4990334;28;20037;-83
2021/03/21 08:52:39;;;;;;;6.55;3.58;;;;;;;;;;5008678;28;20105;-82
2021/03/21 08:55:29;;;;;;;9.45;4.35;;;;;;;;;;4996163;28;20162;-82
2021/03/21 08:58:22;;;;;;;6.28;3.60;;;;;;;;;;5003833;28;20041;-82
2021/03/21 09:01:13;;;;;;;7.78;3.88;;;;;;;;;;4995557;28;20032;-83
2021/03/21 09:04:09;;;;;;;6.88;3.10;;;;;;;;;;5000422;28;20030;-82
2021/03/21 09:07:04;;;;;;;7.57;3.55;;;;;;;;;;4997208;28;20028;-82
2021/03/21 09:10:08;;;;;;;9.48;3.78;;;;;;;;;;5013860;28;20072;-82
2021/03/21 09:12:56;;;;;;;7.82;3.80;;;;;;;;;;5014741;28;20024;-82
2021/03/21 09:15:42;;;;;;;10.30;6.50;;;;;;;;;;5013102;28;20558;-85
2021/03/21 09:18:29;;;;;;;36.85;23.92;;;;;;;;;;4994084;28;20388;-82
2021/03/21 09:21:20;;;;;;;8.80;4.28;;;;;;;;;;5016245;28;20010;-82
2021/03/21 09:24:10;;;;;;;5.68;3.17;;;;;;;;;;5009967;28;20014;-84
2021/03/21 09:27:16;;;;;;;5.93;3.83;;;;;;;;;;5003585;28;20030;-82
2021/03/21 09:30:04;;;;;;;10.27;4.53;;;;;;;;;;4991995;28;20029;-82
2021/03/21 09:32:54;;;;;;;10.38;3.97;;;;;;;;;;5009892;28;20153;-84
2021/03/21 09:35:42;;;;;;;7.97;4.15;;;;;;;;;;5004105;28;20018;-86
2021/03/21 09:38:28;;;;;;;10.02;4.75;;;;;;;;;;5022181;28;20104;-86
2021/03/21 09:41:14;;;;;;;6.38;3.53;;;;;;;;;;5007815;28;20032;-85
2021/03/21 09:44:05;;;;;;;8.15;4.30;;;;;;;;;;5012921;28;20120;-85
2021/03/21 09:46:52;;;;;;;5.85;3.55;;;;;;;;;;5004940;28;20022;-85
2021/03/21 09:49:43;;;;;;;6.50;3.80;;;;;;;;;;5003328;28;20115;-85
2021/03/21 09:52:47;;;;;;;6.07;4.10;;;;;;;;;;5003827;28;20032;-86
2021/03/21 09:55:41;;;;;;;7.72;4.28;;;;;;;;;;4988222;28;20026;-86
2021/03/21 09:58:26;;;;;;;7.03;4.05;;;;;;;;;;5004369;28;20477;-85
2021/03/21 10:01:31;;;;;;;8.13;4.60;;;;;;;;;;5014217;28;20114;-84
2021/03/21 10:04:26;;;;;;;7.32;4.50;;;;;;;;;;4999841;28;20025;-83
2021/03/21 10:07:17;;;;;;;8.05;4.78;;;;;;;;;;5000783;28;20105;-82
2021/03/21 10:10:05;;;;;;;9.48;4.53;;;;;;;;;;5005582;28;20065;-82
2021/03/21 10:12:51;;;;;;;9.25;4.43;;;;;;;;;;5020175;28;20025;-83
2021/03/21 10:15:57;;;;;;;10.35;4.28;;;;;;;;;;4999117;28;20053;-82
2021/03/21 10:18:47;;;;;;;9.35;5.07;;;;;;;;;;5005664;28;20049;-81
2021/03/21 10:21:34;;;;;;;8.43;4.60;;;;;;;;;;5011497;28;20426;-81
2021/03/21 10:24:25;;;;;;;11.20;4.82;;;;;;;;;;5016948;28;20033;-81
2021/03/21 10:27:14;;;;;;;9.20;5.18;;;;;;;;;;4999656;28;20022;-80
2021/03/21 10:30:18;;;;;;;6.93;4.45;;;;;;;;;;4984650;28;20539;-82
2021/03/21 10:33:04;;;;;;;9.07;5.03;;;;;;;;;;5008751;28;20488;-83
2021/03/21 10:35:50;;;;;;;12.23;5.40;;;;;;;;;;5005267;28;20037;-81
2021/03/21 10:38:44;;;;;;;10.73;6.53;;;;;;;;;;5004055;28;20022;-82
2021/03/21 10:41:48;;;;;;;9.32;5.70;;;;;;;;;;5004157;28;20037;-81
2021/03/21 10:44:36;;;;;;;9.48;5.57;;;;;;;;;;5005180;28;20030;-82
2021/03/21 10:47:21;;;;;;;9.32;5.80;;;;;;;;;;5003756;28;20025;-83
2021/03/21 10:50:13;;;;;;;10.23;5.30;;;;;;;;;;4999780;28;20026;-84
2021/03/21 10:53:10;;;;;;;21.75;13.18;;;;;;;;;;4996682;28;20026;-82
2021/03/21 10:56:00;;;;;;;11.18;6.70;;;;;;;;;;4995613;28;20029;-80
2021/03/21 10:58:45;;;;;;;;;;;;;;;;;;5001561;28;20036;-82
2021/03/21 11:01:32;;;;;;;7.72;5.13;;;;;;;;;;4996202;28;19914;-81
2021/03/21 11:04:17;;;;;;;9.95;5.95;;;;;;;;;;5007241;28;20126;-82
2021/03/21 11:07:22;;;;;;;12.65;5.80;;;;;;;;;;4999947;28;20050;-81
2021/03/21 11:10:08;;;;;;;16.13;7.03;;;;;;;;;;4998426;28;20493;-82
2021/03/21 11:12:53;;;;;;;11.40;6.88;;;;;;;;;;4984430;28;20034;-82
2021/03/21 11:15:40;;;;;;;13.52;7.95;;;;;;;;;;5015687;28;20428;-82
2021/03/21 11:18:27;;;;;;;14.93;8.57;;;;;;;;;;4994678;28;20026;-82
2021/03/21 11:21:15;;;;;;;10.60;7.20;;;;;;;;;;4996778;28;20054;-83
2021/03/21 11:24:02;;;;;;;11.45;7.00;;;;;;;;;;5005912;28;20025;-81
2021/03/21 11:26:47;;;;;;;12.38;7.95;;;;;;;;;;5019570;28;20025;-83
2021/03/21 11:29:38;;;;;;;17.40;12.07;;;;;;;;;;5014925;28;20092;-81
2021/03/21 11:32:29;;;;;;;12.40;7.47;;;;;;;;;;5014127;28;20079;-82
2021/03/21 11:35:20;;;;;;;11.98;7.57;;;;;;;;;;4994871;28;20010;-81
2021/03/21 11:38:23;;;;;;;13.32;7.70;;;;;;;;;;4996820;28;20605;-81
2021/03/21 11:41:27;;;;;;;11.98;7.47;;;;;;;;;;5002693;28;20022;-81
2021/03/21 11:44:31;;;;;;;12.90;6.57;;;;;;;;;;5001068;28;20513;-80
2021/03/21 11:47:22;;;;;;;11.20;7.00;;;;;;;;;;4994495;28;20084;-82
2021/03/21 11:50:14;;;;;;;10.00;6.57;;;;;;;;;;4993702;28;20718;-81
2021/03/21 11:53:00;;;;;;;13.15;6.55;;;;;;;;;;4997534;28;20032;-80
2021/03/21 11:55:50;;;;;;;10.23;6.15;;;;;;;;;;4997625;28;20032;-81
2021/03/21 11:58:40;;;;;;;9.77;6.20;;;;;;;;;;5001692;28;20030;-82
2021/03/21 12:01:25;;;;;;;;;;;;;;;;;;5000563;28;20029;-81
2021/03/21 12:04:17;;;;;;;9.93;6.05;;;;;;;;;;4997818;28;19917;-82
2021/03/21 12:07:03;;;;;;;14.13;6.60;;;;;;;;;;5002240;28;20022;-81
2021/03/21 12:09:48;;;;;;;10.80;6.30;;;;;;;;;;4999299;28;20018;-81
2021/03/21 12:12:39;;;;;;;9.18;5.72;;;;;;;;;;5008568;28;20040;-83
2021/03/21 12:15:24;;;;;;;10.18;6.40;;;;;;;;;;4990803;28;20134;-83
2021/03/21 12:18:28;;;;;;;11.48;6.10;;;;;;;;;;5010960;28;20044;-82
2021/03/21 12:21:15;;;;;;;9.52;5.88;;;;;;;;;;5012244;28;20037;-83
2021/03/21 12:24:05;;;;;;;11.48;6.13;;;;;;;;;;5000692;28;20104;-83
2021/03/21 12:27:17;;;;;;;11.20;5.88;;;;;;;;;;4990069;28;20492;-81
2021/03/21 12:30:08;;;;;;;9.23;5.13;;;;;;;;;;4977954;28;20038;-82
2021/03/21 12:33:10;;;;;;;9.98;4.78;;;;;;;;;;5003382;28;20036;-81
2021/03/21 12:36:10;;;;;;;8.30;4.63;;;;;;;;;;5007564;28;20037;-81
2021/03/21 12:38:58;;;;;;;8.00;4.68;;;;;;;;;;4982450;28;20048;-83
2021/03/21 12:41:44;;;;;;;7.07;4.20;;;;;;;;;;5003046;28;20029;-82
2021/03/21 12:44:35;;;;;;;6.05;4.20;;;;;;;;;;5001858;28;20041;-82
2021/03/21 12:47:30;;;;;;;5.50;3.65;;;;;;;;;;4994651;28;20030;-82
2021/03/21 12:50:28;;;;;;;7.38;3.47;;;;;;;;;;4995732;28;20388;-83
2021/03/21 12:53:28;;;;;;;5.85;3.33;;;;;;;;;;5009076;28;20013;-84
2021/03/21 12:56:13;;;;;;;5.53;3.58;;;;;;;;;;4999182;28;20040;-82
2021/03/21 12:58:58;;;;;;;5.13;3.63;;;;;;;;;;4998692;28;20102;-82
2021/03/21 13:01:44;;;;;;;5.95;3.63;;;;;;;;;;4994580;28;20030;-82
2021/03/21 13:04:29;;;;;;;6.32;4.68;;;;;;;;;;5000214;28;20040;-83
2021/03/21 13:07:15;;;;;;;6.97;3.58;;;;;;;;;;5011262;28;20038;-81
2021/03/21 13:10:00;;;;;;;5.65;3.97;;;;;;;;;;4980753;28;20054;-83
2021/03/21 13:12:45;;;;;;;6.60;3.97;;;;;;;;;;4993994;28;20025;-83
2021/03/21 13:15:31;;;;;;;7.82;4.13;;;;;;;;;;5014044;28;20052;-83
2021/03/21 13:18:20;;;;;;;6.68;4.25;;;;;;;;;;4994139;28;20235;-83
2021/03/21 13:21:05;;;;;;;5.63;3.55;;;;;;;;;;4989313;28;20032;-85
2021/03/21 13:23:51;;;;;;;7.95;4.80;;;;;;;;;;5007724;28;20054;-82
2021/03/21 13:26:36;;;;;;;6.50;3.72;;;;;;;;;;5013819;28;20049;-82
2021/03/21 13:29:21;;;;;;;8.05;4.50;;;;;;;;;;4998736;28;20026;-83
2021/03/21 13:32:07;;;;;;;8.85;4.70;;;;;;;;;;5006713;28;20025;-82
2021/03/21 13:34:55;;;;;;;8.35;4.82;;;;;;;;;;4994387;28;20069;-84
2021/03/21 13:37:41;;;;;;;10.13;5.03;;;;;;;;;;5014574;28;20029;-83
2021/03/21 13:40:28;;;;;;;20.23;13.50;;;;;;;;;;5000928;28;20037;-84
2021/03/21 13:43:14;;;;;;;11.00;6.88;;;;;;;;;;5010710;28;20041;-83
2021/03/21 13:46:00;;;;;;;7.63;4.50;;;;;;;;;;4984799;28;20022;-82
2021/03/21 13:48:45;;;;;;;7.72;4.55;;;;;;;;;;4988055;28;20042;-82
2021/03/21 13:51:31;;;;;;;8.93;5.15;;;;;;;;;;5012070;28;20033;-82
2021/03/21 13:54:18;;;;;;;6.82;4.70;;;;;;;;;;4979388;28;20652;-83
2021/03/21 13:57:03;;;;;;;7.18;4.53;;;;;;;;;;5009967;28;20037;-83
2021/03/21 13:59:49;;;;;;;6.72;4.53;;;;;;;;;;5007983;28;20026;-84
2021/03/21 14:02:34;;;;;;;8.05;4.70;;;;;;;;;;5006641;28;20026;-83
2021/03/21 14:05:20;;;;;;;8.30;4.97;;;;;;;;;;5002691;28;20114;-83
2021/03/21 14:08:06;;;;;;;7.60;5.00;;;;;;;;;;5017409;28;20034;-83
2021/03/21 14:10:52;;;;;;;7.90;5.38;;;;;;;;;;4995763;28;20856;-83
2021/03/21 14:13:37;;;;;;;7.90;5.88;;;;;;;;;;5011924;28;20046;-84
2021/03/21 14:16:22;;;;;;;7.78;5.32;;;;;;;;;;4994481;28;20026;-83
2021/03/21 14:19:08;;;;;;;8.50;4.97;;;;;;;;;;4996048;28;20465;-84
2021/03/21 14:21:53;;;;;;;7.93;4.88;;;;;;;;;;5001905;28;20025;-83
2021/03/21 14:24:38;;;;;;;8.20;5.13;;;;;;;;;;5009108;28;20018;-83
2021/03/21 14:27:24;;;;;;;9.45;5.95;;;;;;;;;;5000908;28;20088;-83
2021/03/21 14:30:10;;;;;;;9.65;4.75;;;;;;;;;;5003458;28;20404;-82
2021/03/21 14:32:56;;;;;;;8.05;4.93;;;;;;;;;;5000881;28;20038;-83
2021/03/21 14:35:41;;;;;;;7.82;5.13;;;;;;;;;;4994425;28;20034;-82
2021/03/21 14:38:29;;;;;;;7.40;5.25;;;;;;;;;;4984250;28;20723;-83
2021/03/21 14:41:14;;;;;;;9.48;5.40;;;;;;;;;;5000200;28;20026;-83
2021/03/21 14:43:59;;;;;;;10.07;6.07;;;;;;;;;;5005772;28;20018;-84
2021/03/21 14:46:45;;;;;;;8.45;5.13;;;;;;;;;;5013629;28;20112;-83
2021/03/21 14:49:30;;;;;;;9.68;5.97;;;;;;;;;;4997073;28;20536;-84
2021/03/21 14:52:16;;;;;;;8.18;5.00;;;;;;;;;;4996773;28;20042;-85
2021/03/21 14:55:02;;;;;;;8.18;5.55;;;;;;;;;;5001350;28;20017;-83
2021/03/21 14:57:47;;;;;;;9.40;6.00;;;;;;;;;;4994028;28;20101;-84
2021/03/21 15:00:34;;;;;;;9.07;6.35;;;;;;;;;;4999268;28;20030;-83
2021/03/21 15:03:19;;;;;;;10.40;6.47;;;;;;;;;;4997425;28;20386;-84
2021/03/21 15:06:05;;;;;;;8.95;5.88;;;;;;;;;;5013836;28;20038;-85
2021/03/21 15:08:50;;;;;;;8.05;5.65;;;;;;;;;;4982560;28;20042;-85
2021/03/21 15:11:35;;;;;;;10.75;5.93;;;;;;;;;;4998560;28;20451;-84
2021/03/21 15:14:21;;;;;;;10.48;7.55;;;;;;;;;;5015214;28;20045;-83
2021/03/21 15:17:06;;;;;;;11.05;7.00;;;;;;;;;;4997432;28;20065;-83
2021/03/21 15:19:51;;;;;;;9.93;6.45;;;;;;;;;;4985028;28;20389;-84
2021/03/21 15:22:36;;;;;;;11.13;6.68;;;;;;;;;;5009952;28;20119;-84
2021/03/21 15:25:23;;;;;;;11.20;6.65;;;;;;;;;;4993451;28;20026;-83
2021/03/21 15:28:08;;;;;;;10.90;6.82;;;;;;;;;;4997630;28;20034;-84
2021/03/21 15:30:54;;;;;;;26.15;17.27;;;;;;;;;;5016823;28;20049;-82
2021/03/21 15:33:39;;;;;;;11.60;7.55;;;;;;;;;;4995619;28;20722;-82
2021/03/21 15:36:25;;;;;;;9.85;6.20;;;;;;;;;;5001112;28;20453;-83
2021/03/21 15:39:10;;;;;;;11.48;6.90;;;;;;;;;;5003424;28;20022;-82
2021/03/21 15:41:56;;;;;;;9.73;6.28;;;;;;;;;;5004759;28;20468;-82
2021/03/21 15:44:41;;;;;;;11.77;7.18;;;;;;;;;;5005305;28;20026;-82
2021/03/21 15:47:27;;;;;;;10.48;6.88;;;;;;;;;;5000896;28;20085;-82
2021/03/21 15:50:13;;;;;;;9.25;6.45;;;;;;;;;;5018171;28;20566;-83
2021/03/21 15:52:59;;;;;;;10.68;6.55;;;;;;;;;;5004994;28;20026;-84
2021/03/21 15:55:44;;;;;;;9.80;6.72;;;;;;;;;;4998558;28;20124;-84
2021/03/21 15:58:29;;;;;;;9.30;6.20;;;;;;;;;;4984459;28;20109;-85
2021/03/21 16:01:15;;;;;;;9.65;6.05;;;;;;;;;;5015195;28;20022;-85
2021/03/21 16:04:02;;;;;;;9.43;6.43;;;;;;;;;;4999198;28;20021;-83
2021/03/21 16:06:48;;;;;;;10.40;6.75;;;;;;;;;;4997778;28;20126;-83
2021/03/21 16:09:33;;;;;;;10.15;6.07;;;;;;;;;;5013768;28;20014;-84
2021/03/21 16:12:18;;;;;;;9.38;6.63;;;;;;;;;;5001979;28;20077;-83
2021/03/21 16:15:04;;;;;;;28.65;17.52;;;;;;;;;;4984248;28;20046;-83
2021/03/21 16:17:49;;;;;;;10.15;6.85;;;;;;;;;;5019464;28;20021;-84
2021/03/21 16:20:35;;;;;;;11.07;6.43;;;;;;;;;;5009220;28;20049;-84
2021/03/21 16:23:21;;;;;;;13.63;6.72;;;;;;;;;;5014900;28;20061;-83
2021/03/21 16:26:06;;;;;;;9.40;6.70;;;;;;;;;;5008739;28;20074;-82
2021/03/21 16:28:52;;;;;;;13.00;7.47;;;;;;;;;;5013959;28;20384;-83
2021/03/21 16:31:38;;;;;;;11.15;6.20;;;;;;;;;;5016179;28;20126;-84
2021/03/21 16:34:24;;;;;;;9.57;5.88;;;;;;;;;;5005443;28;20033;-84
2021/03/21 16:37:09;;;;;;;9.13;6.18;;;;;;;;;;5011306;28;20664;-84
2021/03/21 16:39:54;;;;;;;10.52;7.10;;;;;;;;;;4994969;28;20030;-82
2021/03/21 16:42:39;;;;;;;11.43;6.13;;;;;;;;;;5003643;28;20040;-83
2021/03/21 16:45:26;;;;;;;9.63;6.50;;;;;;;;;;4997653;28;20733;-82
2021/03/21 16:48:11;;;;;;;11.07;5.70;;;;;;;;;;5011187;28;20026;-83
2021/03/21 16:50:57;;;;;;;11.65;5.82;;;;;;;;;;5008312;28;20071;-82
2021/03/21 16:53:42;;;;;;;12.60;7.10;;;;;;;;;;4998729;28;20104;-82
2021/03/21 16:56:27;;;;;;;9.95;6.60;;;;;;;;;;4993322;28;20582;-83